Time;durP1;ratioP1;P1;durP2;ratioP2;P2;SDS_P1;SDS_P2;PMS_P1;PMS_P2;Temp;Humidity;BMP_temperature;BMP_pressure;BME280_temperature;BME280_humidity;BME280_pressure;Samples;Min_cycle;Max_cycle;Signal;HPM_P1;HPM_P2
2022/05/08 00:02:22;;;;;;;13.33;10.77;;;8.30;99.90;7.50;100856;;;;567397;247;35433;-80
2022/05/08 00:04:53;;;;;;;13.30;11.82;;;8.30;99.90;7.50;100863;;;;576279;247;35272;-79
2022/05/08 00:07:21;;;;;;;12.60;8.97;;;8.30;99.90;7.50;100855;;;;581392;247;24086;-79
2022/05/08 00:09:52;;;;;;;13.53;8.60;;;8.30;99.90;7.40;100860;;;;576826;247;24109;-79
2022/05/08 00:12:18;;;;;;;11.43;7.87;;;8.30;99.90;7.40;100857;;;;572352;247;24118;-80
2022/05/08 00:14:45;;;;;;;10.27;7.07;;;8.30;99.90;7.40;100859;;;;581269;244;24118;-80
2022/05/08 00:17:14;;;;;;;13.70;7.73;;;8.30;99.90;7.40;100851;;;;581361;244;24094;-81
2022/05/08 00:19:41;;;;;;;10.33;7.80;;;8.20;99.90;7.40;100858;;;;581256;247;24103;-81
2022/05/08 00:22:09;;;;;;;8.77;7.20;;;8.20;99.90;7.40;100852;;;;580947;245;24093;-80
2022/05/08 00:24:40;;;;;;;10.73;6.97;;;8.20;99.90;7.40;100857;;;;574335;246;24100;-79
2022/05/08 00:27:06;;;;;;;10.50;7.57;;;8.20;99.90;7.40;100857;;;;573475;246;24365;-81
2022/05/08 00:29:34;;;;;;;11.33;7.43;;;8.20;99.90;7.40;100860;;;;573446;246;24230;-80
2022/05/08 00:32:02;;;;;;;10.73;7.53;;;8.20;99.90;7.40;100861;;;;582010;244;24084;-79
2022/05/08 00:34:30;;;;;;;10.90;8.03;;;8.20;99.90;7.40;100853;;;;572996;246;24150;-80
2022/05/08 00:36:58;;;;;;;13.27;7.70;;;8.20;99.90;7.40;100851;;;;581625;246;24122;-79
2022/05/08 00:39:26;;;;;;;9.43;7.57;;;8.20;99.90;7.40;100848;;;;581722;246;24171;-80
2022/05/08 00:41:54;;;;;;;8.67;7.53;;;8.20;99.90;7.30;100858;;;;581541;246;24105;-81
2022/05/08 00:44:22;;;;;;;13.43;7.77;;;8.10;99.90;7.30;100838;;;;581409;246;24163;-79
2022/05/08 00:46:50;;;;;;;11.50;8.23;;;8.10;99.90;7.30;100844;;;;581013;244;24106;-79
2022/05/08 00:49:18;;;;;;;11.40;8.37;;;8.10;99.90;7.30;100848;;;;581192;246;24129;-79
2022/05/08 00:51:50;;;;;;;11.07;8.13;;;8.00;99.90;7.20;100853;;;;581055;246;24138;-78
2022/05/08 00:54:14;;;;;;;11.47;8.23;;;8.00;99.90;7.20;100849;;;;572045;246;24202;-80
2022/05/08 00:56:42;;;;;;;10.60;7.63;;;8.00;99.90;7.20;100861;;;;572721;246;24117;-79
2022/05/08 00:59:13;;;;;;;11.03;9.00;;;8.00;99.90;7.20;100864;;;;572574;247;24146;-79
2022/05/08 01:01:38;;;;;;;16.10;8.53;;;8.00;99.90;7.20;100858;;;;581015;245;24158;-79
2022/05/08 01:04:06;;;;;;;9.87;8.17;;;8.00;99.90;7.20;100860;;;;581148;247;24185;-80
2022/05/08 01:06:37;;;;;;;10.77;8.53;;;8.00;99.90;7.20;100858;;;;581265;247;24076;-79
2022/05/08 01:09:02;;;;;;;11.57;8.00;;;8.00;99.90;7.10;100860;;;;572093;247;24165;-79
2022/05/08 01:11:30;;;;;;;14.37;9.13;;;7.90;99.90;7.10;100856;;;;581123;247;24124;-79
2022/05/08 01:14:01;;;;;;;9.50;8.23;;;7.90;99.90;7.10;100861;;;;581119;244;24085;-79
2022/05/08 01:16:26;;;;;;;14.93;9.20;;;7.90;99.90;7.00;100855;;;;570955;247;24118;-79
2022/05/08 01:18:54;;;;;;;15.03;8.60;;;7.90;99.90;7.00;100854;;;;581149;244;24163;-79
2022/05/08 01:21:41;;;;;;;13.07;9.60;;;7.80;99.90;7.00;100860;;;;581165;247;24103;-79
2022/05/08 01:24:10;;;;;;;11.77;9.10;;;7.80;99.90;7.00;100871;;;;581051;247;24139;-80
2022/05/08 01:26:38;;;;;;;13.00;9.23;;;7.80;99.90;6.90;100865;;;;571954;247;24136;-78
2022/05/08 01:29:05;;;;;;;12.03;8.90;;;7.80;99.90;6.90;100862;;;;580875;247;24088;-79
2022/05/08 01:31:33;;;;;;;14.07;9.27;;;7.70;99.90;6.90;100870;;;;580743;247;24120;-79
2022/05/08 01:34:01;;;;;;;12.80;9.37;;;7.70;99.90;6.90;100861;;;;580623;244;24141;-79
2022/05/08 01:36:29;;;;;;;12.83;9.27;;;7.70;99.90;6.80;100871;;;;573597;246;24074;-80
2022/05/08 01:38:57;;;;;;;12.30;8.93;;;7.70;99.90;6.80;100871;;;;581716;246;24098;-79
2022/05/08 01:41:25;;;;;;;11.43;8.50;;;7.70;99.90;6.80;100864;;;;581671;246;24106;-79
2022/05/08 01:43:53;;;;;;;13.97;10.27;;;7.60;99.90;6.80;100871;;;;581389;244;24100;-80
2022/05/08 01:46:21;;;;;;;16.67;9.83;;;7.60;99.90;6.80;100868;;;;581238;246;24088;-79
2022/05/08 01:48:49;;;;;;;21.50;9.77;;;7.60;99.90;6.70;100869;;;;581688;246;24196;-80
2022/05/08 01:51:17;;;;;;;14.83;9.57;;;7.60;99.90;6.70;100869;;;;581478;244;24157;-82
2022/05/08 01:53:44;;;;;;;13.07;9.47;;;7.50;99.90;6.70;100868;;;;581217;246;26277;-78
2022/05/08 01:56:13;;;;;;;13.47;9.80;;;7.50;99.90;6.60;100870;;;;580994;246;24088;-79
2022/05/08 01:58:40;;;;;;;21.00;9.53;;;7.40;99.90;6.60;100868;;;;572781;246;25135;-79
2022/05/08 02:01:11;;;;;;;20.77;10.63;;;7.40;99.90;6.50;100880;;;;581656;244;25182;-78
2022/05/08 02:03:37;;;;;;;20.40;11.43;;;7.30;99.90;6.50;100876;;;;572682;246;24141;-78
2022/05/08 02:06:09;;;;;;;14.83;10.27;;;7.30;99.90;6.50;100877;;;;562524;251;24198;-79
2022/05/08 02:08:34;;;;;;;16.83;11.33;;;7.20;99.90;6.40;100870;;;;572420;246;24088;-79
2022/05/08 02:11:02;;;;;;;19.40;10.73;;;7.20;99.90;6.40;100867;;;;572549;247;24141;-79
2022/05/08 02:13:29;;;;;;;16.93;9.73;;;7.20;99.90;6.40;100865;;;;581112;247;24107;-80
2022/05/08 02:15:58;;;;;;;14.73;10.13;;;7.20;99.90;6.30;100873;;;;581141;244;24117;-79
2022/05/08 02:18:26;;;;;;;16.30;10.00;;;7.10;99.90;6.30;100875;;;;581200;247;24109;-77
2022/05/08 02:20:54;;;;;;;15.03;9.80;;;7.10;99.90;6.30;100863;;;;581159;245;24087;-79
2022/05/08 02:23:22;;;;;;;12.83;10.17;;;7.10;99.90;6.30;100866;;;;581124;247;24140;-78
2022/05/08 02:25:50;;;;;;;14.57;10.47;;;7.10;99.90;6.30;100862;;;;581016;247;24150;-80
2022/05/08 02:28:18;;;;;;;14.93;9.50;;;7.10;99.90;6.30;100857;;;;581147;247;24086;-78
2022/05/08 02:30:46;;;;;;;14.47;10.50;;;7.10;99.90;6.30;100868;;;;581014;247;24079;-79
2022/05/08 02:33:14;;;;;;;13.93;9.13;;;7.10;99.90;6.30;100872;;;;581089;247;25128;-79
2022/05/08 02:35:42;;;;;;;15.50;10.53;;;7.00;99.90;6.20;100868;;;;581087;247;24121;-80
2022/05/08 02:38:10;;;;;;;13.13;8.97;;;7.00;99.90;6.20;100866;;;;581104;244;24115;-80
2022/05/08 02:40:38;;;;;;;14.73;9.97;;;7.00;99.90;6.20;100862;;;;581137;247;24078;-80
2022/05/08 02:43:07;;;;;;;14.40;9.73;;;7.00;99.90;6.20;100861;;;;581146;247;24167;-79
2022/05/08 02:45:35;;;;;;;13.90;10.23;;;7.00;99.90;6.10;100853;;;;580947;247;24085;-79
2022/05/08 02:48:03;;;;;;;17.63;11.03;;;7.00;99.90;6.10;100850;;;;582597;244;24109;-80
2022/05/08 02:50:31;;;;;;;13.07;9.73;;;7.00;99.90;6.10;100866;;;;581778;246;24082;-79
2022/05/08 02:52:59;;;;;;;15.90;10.23;;;6.90;99.90;6.10;100852;;;;573195;246;24095;-80
2022/05/08 03:00:59;;;;;;;14.07;9.87;;;6.90;99.90;6.00;100861;;;;581613;246;24106;-79
2022/05/08 03:03:29;;;;;;;12.17;8.80;;;6.80;99.90;6.00;100850;;;;572710;246;24094;-79
2022/05/08 03:05:55;;;;;;;14.87;9.67;;;6.80;99.90;6.00;100857;;;;580753;246;24091;-80
2022/05/08 03:08:23;;;;;;;12.77;9.03;;;6.80;99.90;6.00;100860;;;;572245;246;24097;-81
2022/05/08 03:13:39;;;;;;;13.43;9.20;;;6.80;99.90;6.00;100857;;;;581124;246;24173;-80
2022/05/08 03:16:08;;;;;;;13.93;9.27;;;6.80;99.90;6.00;100856;;;;580096;246;24118;-80
2022/05/08 03:18:39;;;;;;;11.03;7.67;;;6.90;99.90;6.10;100856;;;;572351;246;24105;-79
2022/05/08 03:21:04;;;;;;;15.47;8.10;;;6.90;99.90;6.10;100854;;;;571930;246;24100;-80
2022/05/08 03:23:33;;;;;;;12.80;8.60;;;6.90;99.90;6.10;100855;;;;580861;247;24144;-79
2022/05/08 03:26:03;;;;;;;16.70;9.27;;;7.00;99.90;6.20;100861;;;;580718;247;24099;-80
2022/05/08 03:28:27;;;;;;;17.97;9.67;;;7.00;99.90;6.30;100855;;;;571700;247;24085;-79
2022/05/08 03:30:55;;;;;;;15.67;8.17;;;7.10;99.90;6.30;100861;;;;580836;247;24090;-78
2022/05/08 03:33:23;;;;;;;15.50;8.63;;;7.10;99.90;6.40;100860;;;;580701;247;24087;-79
2022/05/08 03:35:51;;;;;;;18.03;9.23;;;7.20;99.90;6.40;100859;;;;580815;247;24115;-79
2022/05/08 03:38:19;;;;;;;14.20;8.43;;;7.30;99.90;6.50;100870;;;;580684;244;24152;-78
2022/05/08 03:40:51;;;;;;;20.63;8.67;;;7.40;99.90;6.60;100871;;;;580896;247;24091;-79
2022/05/08 03:43:16;;;;;;;17.53;8.97;;;7.40;99.90;6.70;100871;;;;580409;247;24093;-78
2022/05/08 03:45:44;;;;;;;14.63;8.87;;;7.50;99.90;6.80;100875;;;;580745;247;24087;-78
2022/05/08 03:48:11;;;;;;;17.60;8.47;;;7.60;99.90;6.80;100875;;;;580830;244;25162;-78
2022/05/08 03:50:39;;;;;;;16.50;7.43;;;7.60;99.90;7.10;100880;;;;580674;247;24114;-79
2022/05/08 03:53:11;;;;;;;16.70;8.77;;;7.80;99.90;7.30;100871;;;;580886;247;24129;-80
2022/05/08 03:55:39;;;;;;;14.43;7.93;;;8.00;99.90;7.40;100877;;;;580533;245;24145;-78
2022/05/08 03:58:03;;;;;;;12.50;8.27;;;8.20;99.90;7.50;100885;;;;581062;245;24089;-80
2022/05/08 04:00:32;;;;;;;14.27;8.43;;;8.60;99.90;7.80;100877;;;;582140;244;24114;-79
2022/05/08 04:03:01;;;;;;;20.80;8.60;;;9.00;99.90;8.20;100887;;;;573185;246;24133;-79
2022/05/08 04:05:29;;;;;;;14.70;8.20;;;8.90;99.90;8.60;100893;;;;581828;244;24140;-80
2022/05/08 04:08:00;;;;;;;11.47;7.50;;;9.40;99.90;9.00;100889;;;;581701;246;24078;-79
2022/05/08 04:10:24;;;;;;;9.83;7.77;;;9.80;99.90;9.80;100900;;;;572430;246;24108;-81
2022/05/08 04:12:52;;;;;;;12.37;6.90;;;10.50;99.90;10.90;100900;;;;581743;246;24133;-79
2022/05/08 04:18:07;;;;;;;9.10;4.87;;;13.00;99.90;13.90;100908;;;;572607;246;24079;-79
2022/05/08 04:20:35;;;;;;;8.90;5.07;;;14.60;99.90;15.10;100905;;;;572565;244;24089;-80
2022/05/08 04:25:58;;;;;;;9.33;4.17;;;17.00;99.90;17.30;100910;;;;581509;246;24186;-79
2022/05/08 04:28:23;;;;;;;11.37;4.53;;;18.20;99.90;18.10;100912;;;;572496;246;24116;-80
2022/05/08 04:30:51;;;;;;;7.30;3.97;;;19.00;99.90;19.00;100904;;;;572441;246;24144;-80
2022/05/08 04:33:20;;;;;;;11.07;4.60;;;20.50;99.90;19.30;100908;;;;572579;246;24124;-79
2022/05/08 04:35:48;;;;;;;9.13;4.90;;;20.90;98.10;19.70;100911;;;;572246;247;23199;-79
2022/05/08 04:38:17;;;;;;;8.37;4.33;;;21.50;94.20;20.40;100913;;;;572290;247;24068;-79
2022/05/08 04:40:45;;;;;;;7.20;4.23;;;21.50;94.20;20.70;100910;;;;572241;247;24080;-79
2022/05/08 04:43:13;;;;;;;7.63;4.87;;;21.90;90.50;20.90;100909;;;;572361;247;23105;-80
2022/05/08 04:45:41;;;;;;;7.47;4.67;;;22.10;86.00;21.00;100909;;;;572331;247;24104;-79
2022/05/08 04:48:12;;;;;;;6.30;4.03;;;22.20;82.90;21.50;100922;;;;561889;251;24101;-80
2022/05/08 04:50:36;;;;;;;7.07;4.13;;;22.60;79.60;21.90;100922;;;;572018;247;24143;-80
2022/05/08 04:53:04;;;;;;;6.53;3.67;;;22.90;76.10;22.20;100915;;;;572357;247;24109;-80
2022/05/08 04:55:36;;;;;;;8.03;4.90;;;23.30;72.70;22.50;100921;;;;572369;247;24110;-80
2022/05/08 04:58:01;;;;;;;7.63;4.60;;;23.90;68.90;22.80;100924;;;;571909;247;24123;-80
2022/05/08 05:00:30;;;;;;;5.83;4.80;;;24.20;67.50;23.20;100930;;;;572409;247;24161;-80
2022/05/08 05:02:58;;;;;;;7.93;4.50;;;24.20;67.40;23.40;100934;;;;572337;247;23096;-80
2022/05/08 05:05:30;;;;;;;7.20;4.60;;;24.50;63.70;23.60;100940;;;;571700;247;24106;-80
2022/05/08 05:07:54;;;;;;;6.93;4.07;;;24.50;63.70;24.10;100937;;;;571766;247;24207;-80
2022/05/08 05:10:22;;;;;;;4.97;4.47;;;24.90;62.40;25.10;100940;;;;573040;246;23143;-79
2022/05/08 05:12:50;;;;;;;8.23;4.57;;;25.80;60.90;26.30;100946;;;;573195;246;23124;-80
2022/05/08 05:15:18;;;;;;;5.23;4.43;;;27.00;57.70;27.00;100951;;;;572808;246;23105;-80
2022/05/08 05:17:46;;;;;;;5.33;4.57;;;27.90;55.20;27.60;100956;;;;572944;246;24119;-81
2022/05/08 05:20:15;;;;;;;7.80;4.20;;;29.00;52.10;28.10;100950;;;;572504;246;23097;-80
2022/05/08 05:22:43;;;;;;;8.27;4.60;;;29.50;51.30;28.70;100958;;;;572286;246;24094;-81
2022/05/08 05:25:12;;;;;;;9.30;4.40;;;30.10;50.20;29.40;100962;;;;572629;246;24138;-80
2022/05/08 05:27:41;;;;;;;7.25;4.53;;;30.60;48.70;29.80;100968;;;;572236;246;23159;-80
2022/05/08 05:30:12;;;;;;;6.30;3.83;;;30.60;48.60;30.30;100968;;;;572440;246;23085;-80
2022/05/08 05:32:38;;;;;;;8.32;4.07;;;31.10;47.50;30.70;100974;;;;571932;246;23104;-81
2022/05/08 05:35:05;;;;;;;9.15;4.10;;;31.50;46.50;31.00;100981;;;;572589;246;23132;-81
2022/05/08 05:37:33;;;;;;;5.87;3.87;;;31.80;45.20;30.90;100980;;;;572453;246;23097;-80
2022/05/08 05:40:00;;;;;;;6.78;3.95;;;31.80;44.30;30.70;100981;;;;572227;246;23097;-81
2022/05/08 05:42:29;;;;;;;7.07;4.15;;;32.00;44.10;31.20;100984;;;;572427;246;23116;-81
2022/05/08 05:44:58;;;;;;;7.80;3.75;;;32.50;43.20;31.80;100986;;;;571801;246;24113;-80
2022/05/08 05:50:15;;;;;;;9.75;4.45;;;32.70;42.40;31.70;100997;;;;571991;247;23142;-81
2022/05/08 05:52:40;;;;;;;4.85;3.42;;;32.50;42.70;32.30;100997;;;;572029;247;23105;-81
2022/05/08 05:55:08;;;;;;;7.15;3.85;;;32.80;42.40;32.80;101005;;;;572314;247;23098;-80
2022/05/08 05:57:38;;;;;;;5.78;3.83;;;33.40;41.40;33.20;101007;;;;571771;247;23093;-82
2022/05/08 06:00:03;;;;;;;7.15;3.45;;;33.80;40.80;33.50;100999;;;;571920;247;23106;-81
2022/05/08 06:02:31;;;;;;;6.45;3.53;;;34.10;39.80;33.60;101002;;;;571899;247;23120;-81
2022/05/08 06:04:59;;;;;;;9.15;3.47;;;34.30;39.20;34.00;101009;;;;572079;247;23082;-81
2022/05/08 06:07:27;;;;;;;6.75;3.40;;;34.70;39.00;34.60;101007;;;;571848;247;23114;-81
2022/05/08 06:09:56;;;;;;;7.55;3.25;;;35.50;38.20;35.00;101016;;;;572118;247;23143;-81
2022/05/08 06:12:27;;;;;;;5.47;3.20;;;36.10;37.80;35.70;101012;;;;572129;247;24107;-80
2022/05/08 06:14:53;;;;;;;7.18;3.37;;;36.10;37.80;36.30;101009;;;;572402;247;23119;-82
2022/05/08 06:17:20;;;;;;;5.70;2.67;;;36.70;36.50;36.10;101015;;;;572167;247;23089;-81
2022/05/08 06:19:48;;;;;;;5.93;3.25;;;36.70;35.80;36.30;101013;;;;572020;247;23092;-82
2022/05/08 06:22:16;;;;;;;6.35;3.17;;;36.90;36.00;35.80;101011;;;;573299;246;23142;-82
2022/05/08 06:24:44;;;;;;;4.55;2.70;;;36.70;34.40;35.80;101022;;;;573042;246;23164;-82
2022/05/08 06:27:12;;;;;;;3.92;2.67;;;36.50;35.30;36.30;101022;;;;572962;246;23077;-81
2022/05/08 06:29:40;;;;;;;6.25;2.78;;;36.90;34.50;36.40;101016;;;;572880;246;23131;-81
2022/05/08 06:32:08;;;;;;;3.95;2.67;;;36.90;34.40;36.30;101027;;;;572538;246;25285;-81
2022/05/08 06:34:36;;;;;;;6.00;2.62;;;36.80;34.40;37.00;101029;;;;572631;246;24149;-80
2022/05/08 06:37:04;;;;;;;6.35;2.72;;;37.40;34.70;37.00;101029;;;;572522;246;23116;-81
2022/05/08 06:39:34;;;;;;;5.18;2.53;;;37.50;33.50;37.30;101030;;;;572575;246;23113;-82
2022/05/08 06:42:00;;;;;;;4.20;2.53;;;37.70;33.40;37.70;101030;;;;572088;246;23081;-82
2022/05/08 06:44:28;;;;;;;5.32;3.00;;;38.10;33.70;38.00;101039;;;;572174;246;23109;-82
2022/05/08 06:46:56;;;;;;;5.32;2.80;;;38.40;32.80;38.50;101033;;;;572378;246;23136;-81
2022/05/08 06:49:24;;;;;;;4.12;2.28;;;39.30;32.80;39.10;101036;;;;572259;246;23153;-82
2022/05/08 06:51:55;;;;;;;6.50;2.70;;;39.30;32.10;39.90;101038;;;;572660;244;23145;-81
2022/05/08 06:54:20;;;;;;;4.32;2.47;;;40.10;31.40;40.10;101041;;;;572506;246;23093;-83
2022/05/08 06:56:51;;;;;;;6.95;2.90;;;40.60;30.80;40.20;101047;;;;572354;247;23142;-81
2022/05/08 07:02:02;;;;;;;5.07;2.45;;;41.00;30.10;39.90;101051;;;;572395;247;23096;-81
2022/05/08 07:04:33;;;;;;;4.28;2.67;;;40.60;29.60;40.00;101054;;;;571517;247;24134;-82
2022/05/08 07:06:58;;;;;;;5.47;2.53;;;40.50;29.80;39.60;101052;;;;571961;247;23122;-82
2022/05/08 07:09:26;;;;;;;5.57;2.33;;;40.20;29.30;39.10;101057;;;;571948;247;23146;-81
2022/05/08 07:11:55;;;;;;;4.12;2.70;;;39.10;29.70;38.50;101065;;;;571957;247;24121;-82
2022/05/08 07:14:23;;;;;;;4.05;2.50;;;39.10;29.60;38.20;101072;;;;572124;247;24127;-81
2022/05/08 07:16:50;;;;;;;4.10;2.40;;;38.80;29.70;37.80;101067;;;;571987;247;23116;-81
2022/05/08 07:19:18;;;;;;;4.25;2.20;;;38.40;30.00;38.00;101069;;;;572076;247;23127;-81
2022/05/08 07:21:46;;;;;;;5.47;2.40;;;38.40;29.80;37.50;101069;;;;572145;247;23121;-81
2022/05/08 07:24:14;;;;;;;5.28;2.12;;;38.10;29.80;37.20;101070;;;;571990;247;23127;-81
2022/05/08 07:26:42;;;;;;;2.78;2.10;;;37.80;29.60;37.30;101080;;;;571696;247;23131;-82
2022/05/08 07:29:10;;;;;;;3.05;2.42;;;37.80;30.00;37.60;101074;;;;572014;247;23085;-82
2022/05/08 07:31:42;;;;;;;3.55;1.83;;;38.50;30.00;38.30;101079;;;;572151;247;23097;-83
2022/05/08 07:36:56;;;;;;;4.00;1.90;;;39.20;29.60;39.80;101090;;;;573176;246;23105;-81
2022/05/08 07:39:22;;;;;;;4.03;2.30;;;40.30;28.90;39.90;101082;;;;572445;246;24185;-81
2022/05/08 07:41:51;;;;;;;2.90;2.20;;;40.30;28.80;39.90;101091;;;;572389;246;23120;-82
2022/05/08 07:44:18;;;;;;;4.05;2.17;;;40.30;29.00;40.00;101088;;;;572402;246;23086;-82
2022/05/08 07:46:46;;;;;;;3.85;2.22;;;40.50;28.60;40.20;101093;;;;572742;246;23291;-82
2022/05/08 07:49:14;;;;;;;4.82;2.00;;;40.60;29.00;40.60;101095;;;;572565;246;23121;-82
2022/05/08 07:51:41;;;;;;;3.72;2.17;;;40.90;28.70;41.10;101096;;;;572297;246;23117;-82
2022/05/08 07:54:09;;;;;;;4.65;2.10;;;41.40;28.20;41.40;101106;;;;572355;246;24301;-82
2022/05/08 07:56:37;;;;;;;4.57;2.20;;;41.70;27.80;41.70;101103;;;;572577;246;24142;-82
2022/05/08 07:59:05;;;;;;;3.85;2.17;;;42.00;27.60;41.00;101113;;;;572787;246;23108;-83
2022/05/08 08:01:33;;;;;;;2.97;2.35;;;41.70;28.60;40.60;101110;;;;573149;246;23066;-83
2022/05/08 08:04:06;;;;;;;4.32;1.75;;;40.90;27.50;40.20;101108;;;;572959;246;23135;-81
2022/05/08 08:06:33;;;;;;;3.67;2.05;;;40.90;27.60;40.40;101112;;;;572726;246;23114;-82
2022/05/08 08:08:58;;;;;;;3.28;2.08;;;40.80;27.50;40.30;101124;;;;573250;247;23108;-81
2022/05/08 08:11:26;;;;;;;3.22;1.90;;;40.80;27.80;41.00;101120;;;;581594;245;23116;-82
2022/05/08 08:13:55;;;;;;;1.83;1.73;;;41.40;28.00;41.40;101120;;;;572161;247;23096;-82
2022/05/08 08:16:22;;;;;;;4.30;1.80;;;41.80;27.50;41.80;101127;;;;572055;247;23090;-81
2022/05/08 08:18:54;;;;;;;3.58;2.35;;;42.10;26.90;41.50;101128;;;;580745;245;23089;-81
2022/05/08 08:21:20;;;;;;;3.92;2.30;;;42.40;27.20;41.90;101130;;;;580633;244;23100;-81
2022/05/08 08:23:48;;;;;;;3.03;1.77;;;42.80;26.90;42.30;101137;;;;572077;247;23124;-83
2022/05/08 08:26:17;;;;;;;2.30;1.77;;;42.80;26.90;42.10;101145;;;;571982;247;24143;-82
2022/05/08 08:28:45;;;;;;;2.10;1.98;;;42.80;26.90;42.00;101147;;;;571958;247;23089;-82
2022/05/08 08:31:13;;;;;;;2.28;1.98;;;42.70;26.50;42.00;101137;;;;572112;247;23093;-82
2022/05/08 08:33:41;;;;;;;2.28;1.77;;;42.60;26.80;42.10;101148;;;;572085;247;23139;-82
2022/05/08 08:36:11;;;;;;;5.75;2.10;;;42.70;26.20;41.90;101148;;;;571970;247;23109;-82
2022/05/08 08:38:36;;;;;;;3.15;1.87;;;42.60;26.40;41.60;101150;;;;571796;247;23108;-82
2022/05/08 08:41:09;;;;;;;4.37;2.30;;;42.30;26.90;41.70;101151;;;;571765;247;23107;-81
2022/05/08 08:49:06;;;;;;;3.33;2.22;;;43.10;26.60;42.60;101152;;;;582051;246;23147;-82
2022/05/08 08:51:36;;;;;;;2.72;1.90;;;43.70;26.30;42.90;101161;;;;578083;246;23131;-80
2022/05/08 08:54:03;;;;;;;2.87;2.10;;;44.20;26.70;43.40;101165;;;;571083;251;23166;-80
2022/05/08 08:56:31;;;;;;;5.78;2.47;;;44.20;26.10;43.50;101163;;;;572678;246;23147;-82
2022/05/08 08:58:59;;;;;;;3.35;2.55;;;44.50;26.40;44.20;101162;;;;581265;246;23127;-83
2022/05/08 09:01:30;;;;;;;2.75;2.40;;;44.90;26.10;44.40;101167;;;;572749;246;23109;-81
2022/05/08 09:04:00;;;;;;;3.45;2.17;;;45.50;25.80;43.70;101170;;;;580825;244;23104;-81
2022/05/08 09:06:26;;;;;;;2.12;1.92;;;45.00;25.80;43.60;101170;;;;571910;246;23166;-82
2022/05/08 09:08:54;;;;;;;4.07;2.25;;;44.90;25.80;43.90;101175;;;;572323;246;23093;-82
2022/05/08 09:11:32;;;;;;;4.65;2.50;;;44.90;25.60;43.80;101184;;;;572130;246;23124;-82
2022/05/08 09:14:00;;;;;;;3.85;2.80;;;44.90;25.60;44.00;101181;;;;572105;246;23138;-82
2022/05/08 09:16:27;;;;;;;3.35;2.60;;;45.00;26.10;44.50;101180;;;;572140;246;24135;-82
2022/05/08 09:18:55;;;;;;;2.70;2.42;;;45.60;26.00;44.90;101179;;;;572328;246;23098;-81
2022/05/08 09:24:16;;;;;;;7.65;2.75;;;45.40;25.40;43.80;101184;;;;572099;247;23080;-81
2022/05/08 09:26:44;;;;;;;3.65;2.10;;;45.30;25.40;43.60;101183;;;;571976;247;23065;-81
2022/05/08 09:29:24;;;;;;;2.42;1.75;;;45.00;25.30;43.60;101182;;;;571937;247;23130;-82
2022/05/08 09:31:52;;;;;;;2.37;1.87;;;44.90;25.50;44.00;101190;;;;572442;247;23089;-81
2022/05/08 09:34:20;;;;;;;4.00;2.10;;;44.90;25.20;43.30;101191;;;;572129;247;23133;-81
2022/05/08 09:36:49;;;;;;;4.78;2.62;;;44.20;25.40;42.60;101198;;;;571969;247;23091;-81
2022/05/08 09:39:17;;;;;;;4.65;2.40;;;44.20;25.30;42.50;101198;;;;579226;247;23150;-81
2022/05/08 09:41:45;;;;;;;2.58;1.70;;;43.90;25.50;42.50;101195;;;;579819;247;23089;-81
2022/05/08 09:44:16;;;;;;;3.35;2.42;;;43.90;25.40;42.30;101197;;;;571630;247;23104;-81
2022/05/08 09:46:44;;;;;;;4.72;2.40;;;43.90;25.50;42.50;101191;;;;572136;247;23117;-81
2022/05/08 09:49:21;;;;;;;3.22;1.92;;;44.10;25.90;43.20;101193;;;;571993;247;23108;-81
2022/05/08 09:51:54;;;;;;;2.15;1.80;;;45.40;25.70;44.20;101191;;;;579996;247;23107;-81
2022/05/08 09:54:18;;;;;;;5.70;2.30;;;46.00;25.40;44.40;101201;;;;571678;247;23096;-81
2022/05/08 09:56:50;;;;;;;3.87;2.12;;;45.60;25.40;43.50;101185;;;;582298;244;23120;-81
2022/05/08 09:59:19;;;;;;;3.50;2.33;;;45.60;25.10;42.70;101193;;;;582392;244;23276;-80
2022/05/08 10:01:49;;;;;;;2.30;1.52;;;44.90;25.40;42.60;101204;;;;573695;246;23131;-81
2022/05/08 10:04:13;;;;;;;3.28;2.28;;;44.50;25.40;42.10;101198;;;;572701;246;23166;-81
2022/05/08 10:06:42;;;;;;;4.25;3.37;;;44.10;26.50;42.70;101198;;;;573143;246;23141;-81
2022/05/08 10:14:45;;;;;;;5.75;2.60;;;45.00;26.30;43.00;101200;;;;576682;246;35224;-80
2022/05/08 10:17:13;;;;;;;3.90;2.60;;;45.00;26.20;41.90;101196;;;;572424;246;23122;-80
2022/05/08 10:19:45;;;;;;;3.53;1.85;;;44.10;26.40;40.90;101202;;;;572042;246;24117;-81
2022/05/08 10:22:12;;;;;;;4.05;2.25;;;43.10;26.80;40.30;101194;;;;572461;246;23101;-80
2022/05/08 10:24:47;;;;;;;4.93;2.50;;;42.30;27.60;39.90;101201;;;;572282;246;23093;-80
2022/05/08 10:27:20;;;;;;;5.12;2.47;;;41.70;27.80;38.30;101197;;;;572614;246;23102;-79
2022/05/08 10:29:52;;;;;;;3.22;2.50;;;40.40;28.50;35.90;101207;;;;581183;246;23123;-80
2022/05/08 10:32:34;;;;;;;4.70;2.62;;;38.10;29.30;34.40;101209;;;;572329;247;23094;-79
2022/05/08 10:35:10;;;;;;;5.75;2.35;;;36.10;30.70;33.90;101211;;;;572142;247;23155;-79
2022/05/08 10:37:47;;;;;;;3.33;2.58;;;35.10;32.30;33.10;101211;;;;571793;247;23100;-79
2022/05/08 10:40:23;;;;;;;5.65;2.65;;;34.10;33.20;31.70;101208;;;;572233;247;23148;-80
2022/05/08 10:43:01;;;;;;;5.07;2.28;;;31.20;33.70;30.40;101206;;;;572291;247;23136;-80
2022/05/08 10:45:32;;;;;;;6.28;2.62;;;31.10;33.60;29.00;101215;;;;552422;256;23145;-80
2022/05/08 10:48:05;;;;;;;8.48;2.67;;;29.90;38.40;27.10;101231;;;;572241;247;23092;-80
2022/05/08 10:50:32;;;;;;;7.50;2.30;;;28.30;42.70;25.40;101227;;;;579863;247;23119;-81
2022/05/08 10:52:57;;;;;;;7.40;2.87;;;26.60;45.40;23.90;101229;;;;576518;247;24071;-80
2022/05/08 10:55:24;;;;;;;7.20;2.90;;;23.60;53.10;22.50;101217;;;;571682;247;23128;-80
2022/05/08 10:57:55;;;;;;;7.27;2.57;;;23.50;53.00;21.30;101218;;;;572118;244;24120;-81
2022/05/08 11:00:20;;;;;;;10.33;3.23;;;22.30;55.90;20.50;101229;;;;562111;251;24114;-82
2022/05/08 11:03:01;;;;;;;9.57;2.50;;;21.40;59.10;19.80;101231;;;;572643;247;24102;-81
2022/05/08 11:05:29;;;;;;;13.30;3.03;;;19.60;65.00;18.80;101228;;;;572645;247;24093;-80
2022/05/08 11:08:01;;;;;;;7.97;3.03;;;18.80;67.60;18.00;101234;;;;581379;245;24145;-81
2022/05/08 11:10:32;;;;;;;7.57;2.77;;;18.70;67.50;17.30;101234;;;;573706;246;24085;-79
2022/05/08 11:13:05;;;;;;;8.83;2.67;;;18.20;69.30;16.90;101218;;;;573021;246;24086;-79
2022/05/08 11:15:33;;;;;;;7.13;3.10;;;17.60;71.80;16.50;101223;;;;572952;246;24075;-80
2022/05/08 11:18:10;;;;;;;6.53;2.57;;;16.80;75.60;16.10;101219;;;;573256;246;24158;-79
2022/05/08 11:20:44;;;;;;;10.93;2.97;;;16.70;75.50;15.70;101220;;;;572857;246;24098;-79
2022/05/08 11:23:12;;;;;;;11.90;2.90;;;16.10;78.20;15.50;101216;;;;581919;246;24136;-79
2022/05/08 11:25:41;;;;;;;7.60;3.37;;;16.00;79.40;15.40;101217;;;;572639;246;24427;-80
2022/05/08 11:28:17;;;;;;;7.87;2.87;;;15.90;80.70;15.40;101215;;;;572384;246;24107;-79
2022/05/08 11:30:44;;;;;;;11.83;2.60;;;15.90;80.60;15.30;101209;;;;570032;249;24138;-80
2022/05/08 11:36:10;;;;;;;5.93;2.93;;;15.80;83.80;15.10;101208;;;;581248;246;24165;-79
2022/05/08 11:38:50;;;;;;;7.50;3.00;;;15.70;84.40;15.00;101203;;;;581536;246;24134;-78
2022/05/08 11:41:25;;;;;;;4.10;2.50;;;15.50;88.90;14.90;101211;;;;571966;246;24115;-77
2022/05/08 11:43:49;;;;;;;4.90;3.10;;;15.50;88.90;14.90;101221;;;;572384;247;24084;-81
2022/05/08 11:46:35;;;;;;;3.13;2.77;;;15.50;91.20;14.80;101219;;;;580274;247;24096;-80
2022/05/08 11:49:24;;;;;;;4.53;2.83;;;15.40;94.90;14.70;101235;;;;571862;247;24098;-78
2022/05/08 11:51:58;;;;;;;3.47;2.80;;;15.30;94.80;14.50;101227;;;;573100;245;24121;-77
2022/05/08 11:54:35;;;;;;;3.57;3.27;;;15.20;97.10;14.30;101233;;;;571902;247;24083;-80
2022/05/08 11:57:14;;;;;;;8.80;3.80;;;15.00;99.90;14.00;101241;;;;571906;247;24121;-79
2022/05/08 11:59:45;;;;;;;8.90;3.33;;;14.80;99.90;13.90;101232;;;;572668;247;24080;-77